createdAt,value
2022-11-03T00:00:55.194Z,69.04
2022-11-03T00:05:26.926Z,69.70
2022-11-03T00:09:38.436Z,69.31
2022-11-03T00:13:50.021Z,69.62
2022-11-03T00:18:01.507Z,69.62
2022-11-03T00:22:12.996Z,69.41
2022-11-03T00:26:29.271Z,69.79
2022-11-03T00:30:40.896Z,69.89
2022-11-03T00:34:52.408Z,69.89
2022-11-03T00:39:04.842Z,69.86
2022-11-03T00:43:16.401Z,70.15
2022-11-03T00:47:27.981Z,69.88
2022-11-03T00:51:39.559Z,69.78
2022-11-03T00:55:51.123Z,69.90
2022-11-03T01:00:02.667Z,69.91
2022-11-03T01:04:34.185Z,69.73
2022-11-03T01:08:45.658Z,69.89
2022-11-03T01:12:57.078Z,69.88
2022-11-03T01:17:11.621Z,70.16
2022-11-03T01:21:23.933Z,70.11
2022-11-03T01:25:36.121Z,70.32
2022-11-03T01:29:48.609Z,70.13
2022-11-03T01:34:00.103Z,70.26
2022-11-03T01:38:11.609Z,70.53
2022-11-03T01:42:23.124Z,70.46
2022-11-03T01:47:00.674Z,70.75
2022-11-03T01:51:15.609Z,71.02
2022-11-03T01:55:36.230Z,71.33
2022-11-03T01:59:48.918Z,71.09
2022-11-03T02:04:17.839Z,71.21
2022-11-03T02:08:36.471Z,71.17
2022-11-03T02:12:48.247Z,71.80
2022-11-03T02:17:05.192Z,71.54
2022-11-03T02:21:19.566Z,71.77
2022-11-03T02:25:42.046Z,72.02
2022-11-03T02:29:54.688Z,72.55
2022-11-03T02:34:34.384Z,73.44
2022-11-03T02:38:58.408Z,72.75
2022-11-03T02:43:11.483Z,72.77
2022-11-03T02:47:25.582Z,73.44
2022-11-03T02:51:37.546Z,74.05
2022-11-03T02:56:01.431Z,74.17
2022-11-03T03:00:15.124Z,74.00
2022-11-03T03:04:38.701Z,74.01
2022-11-03T03:08:57.911Z,74.60
2022-11-03T03:13:13.595Z,74.38
2022-11-03T03:17:48.643Z,74.35
2022-11-03T03:22:06.523Z,74.48
2022-11-03T03:26:28.074Z,74.55
2022-11-03T03:30:42.486Z,74.96
2022-11-03T03:34:55.929Z,75.09
2022-11-03T03:39:11.139Z,75.19
2022-11-03T03:43:26.443Z,75.26
2022-11-03T03:47:38.116Z,75.32
2022-11-03T03:51:50.944Z,75.36
2022-11-03T03:56:05.556Z,76.01
2022-11-03T04:00:17.182Z,76.48
2022-11-03T04:04:28.839Z,76.60
2022-11-03T04:08:40.375Z,76.73
2022-11-03T04:13:10.543Z,76.52
2022-11-03T04:17:40.582Z,76.94
2022-11-03T04:22:10.833Z,75.94
2022-11-03T04:26:23.009Z,76.09
2022-11-03T04:30:34.462Z,75.99
2022-11-03T04:34:48.188Z,76.48
2022-11-03T04:38:59.619Z,76.78
2022-11-03T04:43:14.429Z,76.79
2022-11-03T04:47:26.249Z,77.03
2022-11-03T04:51:37.714Z,77.42
2022-11-03T04:55:54.132Z,76.84
2022-11-03T05:00:07.381Z,76.73
2022-11-03T05:04:19.016Z,76.77
2022-11-03T05:08:30.556Z,76.83
2022-11-03T05:12:45.693Z,76.55
2022-11-03T05:16:58.679Z,76.83
2022-11-03T05:21:14.739Z,76.62
2022-11-03T05:25:40.223Z,76.17
2022-11-03T05:29:57.982Z,76.45
2022-11-03T05:34:51.686Z,76.52
2022-11-03T05:39:31.667Z,76.44
2022-11-03T05:43:43.121Z,76.79
2022-11-03T05:47:55.865Z,76.90
2022-11-03T05:52:16.663Z,76.65
2022-11-03T05:56:28.247Z,76.63
2022-11-03T06:00:48.123Z,76.60
2022-11-03T06:05:00.181Z,77.10
2022-11-03T06:09:24.213Z,77.09
2022-11-03T06:13:37.928Z,77.12
2022-11-03T06:17:49.854Z,76.98
2022-11-03T06:22:12.478Z,77.08
2022-11-03T06:26:26.218Z,76.84
2022-11-03T06:30:43.643Z,76.99
2022-11-03T06:34:58.060Z,76.65
2022-11-03T06:39:23.717Z,76.95
2022-11-03T06:43:41.486Z,77.24
2022-11-03T06:47:53.744Z,77.30
2022-11-03T06:52:25.982Z,77.50
2022-11-03T06:56:37.643Z,77.10
2022-11-03T07:00:51.726Z,77.43
2022-11-03T07:05:16.586Z,77.65
2022-11-03T07:09:28.362Z,77.63
2022-11-03T07:13:40.068Z,77.42
2022-11-03T07:17:52.436Z,77.69
2022-11-03T07:22:25.563Z,77.67
2022-11-03T07:26:36.986Z,77.60
2022-11-03T07:30:48.471Z,77.50
2022-11-03T07:35:09.813Z,77.00
2022-11-03T07:39:21.421Z,77.21
2022-11-03T07:43:35.858Z,77.21
2022-11-03T07:47:47.427Z,76.57
2022-11-03T07:51:59.680Z,76.72
2022-11-03T07:56:35.475Z,76.53
2022-11-03T08:00:47.102Z,76.44
2022-11-03T08:04:59.527Z,76.37
2022-11-03T08:09:11.089Z,76.22
2022-11-03T08:13:22.561Z,76.41
2022-11-03T08:17:34.076Z,75.96
2022-11-03T08:21:48.567Z,75.81
2022-11-03T08:26:00.220Z,75.72
2022-11-03T08:30:12.183Z,75.88
2022-11-03T08:34:23.839Z,75.41
2022-11-03T08:38:35.972Z,75.79
2022-11-03T08:42:47.556Z,75.42
2022-11-03T08:46:59.040Z,75.37
2022-11-03T08:51:13.348Z,75.22
2022-11-03T08:55:24.965Z,75.46
2022-11-03T08:59:36.458Z,75.10
2022-11-03T09:03:48.051Z,75.01
2022-11-03T09:12:31.332Z,74.06
2022-11-03T09:16:43.097Z,73.71
2022-11-03T09:20:54.623Z,73.43
2022-11-03T09:25:06.832Z,73.33
2022-11-03T09:29:18.360Z,72.83
2022-11-03T09:33:29.862Z,72.99
2022-11-03T09:37:41.409Z,72.24
2022-11-03T09:41:58.560Z,71.82
2022-11-03T09:46:11.543Z,71.38
2022-11-03T09:50:23.382Z,70.18
2022-11-03T09:54:34.991Z,69.16
2022-11-03T09:58:51.280Z,68.39
2022-11-03T10:03:05.822Z,67.80
2022-11-03T10:07:19.202Z,67.37
2022-11-03T10:11:31.341Z,67.43
2022-11-03T10:15:42.916Z,67.38
2022-11-03T10:19:56.840Z,67.11
2022-11-03T10:24:13.179Z,67.17
2022-11-03T10:28:26.883Z,66.93
2022-11-03T10:32:38.425Z,66.89
2022-11-03T10:36:50.788Z,67.02
2022-11-03T10:41:18.168Z,66.80
2022-11-03T10:45:30.200Z,66.75
2022-11-03T10:49:43.930Z,66.32
2022-11-03T10:53:56.463Z,66.82
2022-11-03T10:58:08.203Z,66.58
2022-11-03T11:02:23.100Z,66.41
2022-11-03T11:06:34.672Z,66.42
2022-11-03T11:10:46.289Z,65.59
2022-11-03T11:14:59.922Z,65.89
2022-11-03T11:19:11.495Z,65.86
2022-11-03T11:23:28.981Z,65.64
2022-11-03T11:27:43.478Z,64.94
2022-11-03T11:31:55.012Z,64.46
2022-11-03T11:36:20.726Z,63.85
2022-11-03T11:40:32.172Z,63.34
2022-11-03T11:44:43.663Z,63.35
2022-11-03T11:49:04.180Z,63.16
2022-11-03T11:53:23.189Z,63.10
2022-11-03T11:57:37.714Z,62.68
2022-11-03T12:01:51.952Z,62.72
2022-11-03T12:06:03.845Z,62.18
2022-11-03T12:10:23.606Z,62.18
2022-11-03T12:14:39.080Z,61.30
2022-11-03T12:18:50.962Z,60.85
2022-11-03T12:23:02.461Z,60.95
2022-11-03T12:27:40.684Z,60.58
2022-11-03T12:31:52.412Z,60.36
2022-11-03T12:36:03.958Z,60.06
2022-11-03T12:40:15.618Z,60.06
2022-11-03T12:44:27.360Z,60.05
2022-11-03T12:48:43.723Z,60.06
2022-11-03T12:52:55.210Z,59.97
2022-11-03T12:57:06.834Z,60.38
2022-11-03T13:01:18.844Z,60.45
2022-11-03T13:05:30.487Z,60.13
2022-11-03T13:09:41.961Z,60.43
2022-11-03T13:13:53.700Z,60.17
2022-11-03T13:18:14.225Z,59.97
2022-11-03T13:22:26.082Z,59.56
2022-11-03T13:26:37.614Z,59.48
2022-11-03T13:30:49.159Z,59.17
2022-11-03T13:35:00.714Z,59.21
2022-11-03T13:39:12.663Z,58.70
2022-11-03T13:43:24.179Z,58.82
2022-11-03T13:48:10.490Z,59.01
2022-11-03T13:52:07.362Z,59.38
2022-11-03T13:56:21.953Z,59.31
2022-11-03T14:00:35.020Z,59.35
2022-11-03T14:04:46.656Z,59.45
2022-11-03T14:08:58.227Z,59.72
2022-11-03T14:13:10.165Z,59.75
2022-11-03T14:17:21.904Z,59.64
2022-11-03T14:21:33.471Z,59.95
2022-11-03T14:25:45.017Z,59.80
2022-11-03T14:29:56.511Z,60.39
2022-11-03T14:34:08.200Z,60.49
2022-11-03T14:38:19.693Z,60.81
2022-11-03T14:42:31.167Z,61.25
2022-11-03T14:46:42.759Z,61.48
2022-11-03T14:50:54.266Z,61.94
2022-11-03T14:55:06.444Z,62.28
2022-11-03T14:59:18.573Z,62.56
2022-11-03T15:03:30.437Z,62.75
2022-11-03T15:07:41.922Z,63.47
2022-11-03T15:11:53.596Z,65.03
2022-11-03T15:16:05.783Z,67.28
2022-11-03T15:20:17.405Z,69.37
2022-11-03T15:29:00.443Z,70.96
2022-11-03T15:37:23.592Z,73.61
2022-11-03T15:41:35.294Z,75.01
2022-11-03T15:45:46.900Z,75.13
2022-11-03T15:49:58.539Z,75.46
2022-11-03T15:54:10.076Z,75.51
2022-11-03T15:58:21.661Z,75.52
2022-11-03T16:02:41.315Z,76.72
2022-11-03T16:07:07.437Z,77.03
2022-11-03T16:11:19.864Z,77.32
2022-11-03T16:15:31.411Z,77.67
2022-11-03T16:19:42.976Z,78.15
2022-11-03T16:23:54.576Z,78.06
2022-11-03T16:28:06.438Z,78.45
2022-11-03T16:32:18.159Z,78.52
2022-11-03T16:36:29.768Z,79.08
2022-11-03T16:40:42.414Z,79.00
2022-11-03T16:44:55.443Z,79.08
2022-11-03T16:49:06.981Z,80.29
2022-11-03T16:53:18.541Z,80.87
2022-11-03T16:57:30.110Z,81.95
2022-11-03T17:01:42.017Z,82.66
2022-11-03T17:05:53.707Z,83.62
2022-11-03T17:10:06.822Z,84.26
2022-11-03T17:14:18.419Z,84.37
2022-11-03T17:18:30.032Z,85.33
2022-11-03T17:22:41.593Z,85.99
2022-11-03T17:27:00.218Z,86.44
2022-11-03T17:31:11.928Z,86.35
2022-11-03T17:35:39.022Z,87.07
2022-11-03T17:39:51.723Z,87.42
2022-11-03T17:44:03.360Z,87.65
2022-11-03T17:48:15.393Z,88.61
2022-11-03T17:52:30.519Z,89.13
2022-11-03T17:56:42.099Z,89.13
2022-11-03T18:00:53.835Z,89.36
2022-11-03T18:05:14.120Z,89.49
2022-11-03T18:09:28.830Z,89.94
2022-11-03T18:13:40.590Z,89.74
2022-11-03T18:17:52.321Z,90.10
2022-11-03T18:22:04.185Z,90.01
2022-11-03T18:26:26.619Z,90.29
2022-11-03T18:30:40.117Z,90.37
2022-11-03T18:34:52.508Z,90.45
2022-11-03T18:39:04.630Z,90.89
2022-11-03T18:43:21.543Z,90.57
2022-11-03T18:47:33.083Z,90.74
2022-11-03T18:52:04.246Z,90.76
2022-11-03T18:56:17.687Z,90.82
2022-11-03T19:00:29.227Z,90.95
2022-11-03T19:04:40.780Z,91.14
2022-11-03T19:08:59.492Z,91.04
2022-11-03T19:13:16.020Z,91.09
2022-11-03T19:17:30.656Z,91.20
2022-11-03T19:21:42.122Z,91.21
2022-11-03T19:25:58.101Z,90.87
2022-11-03T19:30:12.366Z,91.30
2022-11-03T19:34:26.156Z,91.39
2022-11-03T19:38:38.142Z,91.49
2022-11-03T19:42:50.038Z,91.63
2022-11-03T19:47:01.570Z,91.54
2022-11-03T19:51:13.335Z,92.06
2022-11-03T19:55:29.464Z,92.01
2022-11-03T19:59:41.760Z,92.13
2022-11-03T20:03:53.245Z,92.01
2022-11-03T20:08:08.549Z,91.96
2022-11-03T20:12:20.314Z,92.00
2022-11-03T20:16:31.897Z,92.08
2022-11-03T20:20:48.034Z,91.84
2022-11-03T20:25:03.053Z,91.82
2022-11-03T20:29:15.585Z,91.86
2022-11-03T20:33:27.189Z,91.61
2022-11-03T20:37:38.792Z,91.87
2022-11-03T20:41:52.144Z,91.71
2022-11-03T20:46:15.519Z,91.88
2022-11-03T20:50:30.275Z,91.67
2022-11-03T20:54:43.416Z,91.45
2022-11-03T20:58:58.345Z,91.57
2022-11-03T21:03:37.944Z,91.31
2022-11-03T21:07:56.253Z,91.62
2022-11-03T21:12:11.838Z,91.68
2022-11-03T21:16:44.045Z,91.36
2022-11-03T21:20:55.938Z,91.47
2022-11-03T21:25:16.559Z,91.43
2022-11-03T21:29:53.382Z,91.72
2022-11-03T21:33:59.692Z,91.62
2022-11-03T21:38:12.199Z,91.51
2022-11-03T21:42:42.146Z,91.75
2022-11-03T21:46:53.658Z,91.60
2022-11-03T21:51:05.364Z,92.06
2022-11-03T21:55:17.013Z,92.29
2022-11-03T21:59:28.505Z,92.52
2022-11-03T22:03:40.096Z,92.72
2022-11-03T22:07:51.628Z,92.66
2022-11-03T22:12:03.367Z,92.59
2022-11-03T22:16:53.406Z,92.37
2022-11-03T22:21:23.893Z,92.53
2022-11-03T22:25:53.954Z,92.37
2022-11-03T22:30:24.607Z,92.25
2022-11-03T22:34:54.861Z,92.42
2022-11-03T22:39:24.827Z,92.55
2022-11-03T22:43:54.967Z,92.49
2022-11-03T22:48:06.794Z,92.51
2022-11-03T22:52:18.391Z,92.61
2022-11-03T22:56:30.341Z,92.43
2022-11-03T23:00:41.962Z,92.20
2022-11-03T23:04:53.615Z,92.46
2022-11-03T23:09:05.221Z,92.26
2022-11-03T23:13:16.809Z,92.13
2022-11-03T23:17:48.340Z,91.97
2022-11-03T23:22:00.145Z,91.75
2022-11-03T23:26:11.650Z,92.27
2022-11-03T23:30:23.188Z,92.20
2022-11-03T23:34:35.166Z,92.38
2022-11-03T23:38:46.996Z,92.37
2022-11-03T23:42:58.494Z,92.22
2022-11-03T23:47:28.590Z,92.71
2022-11-03T23:51:41.812Z,92.67
2022-11-03T23:56:11.935Z,92.83
